createdAt,value
2023-03-02T00:00:23.413Z,23.61
2023-03-02T00:01:23.387Z,23.61
2023-03-02T00:02:23.398Z,23.61
2023-03-02T00:03:23.350Z,23.62
2023-03-02T00:04:23.337Z,23.61
2023-03-02T00:05:23.292Z,23.60
2023-03-02T00:06:23.272Z,23.60
2023-03-02T00:07:23.245Z,23.61
2023-03-02T00:08:23.221Z,23.61
2023-03-02T00:09:23.206Z,23.61
2023-03-02T00:10:23.202Z,23.61
2023-03-02T00:11:23.153Z,23.61
2023-03-02T00:12:23.122Z,23.61
2023-03-02T00:13:23.110Z,23.60
2023-03-02T00:14:23.083Z,23.60
2023-03-02T00:15:23.077Z,23.59
2023-03-02T00:16:23.140Z,23.60
2023-03-02T00:17:23.019Z,23.60
2023-03-02T00:18:22.985Z,23.59
2023-03-02T00:19:23.021Z,23.59
2023-03-02T00:20:22.968Z,23.59
2023-03-02T00:21:22.938Z,23.60
2023-03-02T00:22:22.914Z,23.60
2023-03-02T00:23:22.890Z,23.60
2023-03-02T00:24:22.875Z,23.60
2023-03-02T00:25:22.891Z,23.60
2023-03-02T00:26:22.852Z,23.60
2023-03-02T00:27:22.812Z,23.61
2023-03-02T00:28:23.461Z,23.60
2023-03-02T00:29:22.780Z,23.61
2023-03-02T00:30:22.761Z,23.61
2023-03-02T00:31:22.820Z,23.62
2023-03-02T00:32:22.697Z,23.61
2023-03-02T00:33:22.670Z,23.60
2023-03-02T00:34:22.651Z,23.60
2023-03-02T00:35:22.635Z,23.60
2023-03-02T00:36:22.614Z,23.60
2023-03-02T00:37:22.592Z,23.60
2023-03-02T00:38:22.565Z,23.60
2023-03-02T00:39:22.536Z,23.59
2023-03-02T00:40:22.573Z,23.59
2023-03-02T00:41:22.579Z,23.58
2023-03-02T00:42:22.501Z,23.58
2023-03-02T00:43:22.497Z,23.58
2023-03-02T00:44:22.466Z,23.60
2023-03-02T00:45:22.482Z,23.59
2023-03-02T00:46:22.493Z,23.58
2023-03-02T00:47:22.396Z,23.59
2023-03-02T00:48:22.371Z,23.60
2023-03-02T00:49:22.364Z,23.60
2023-03-02T01:23:22.484Z,23.58
2023-03-02T05:30:17.534Z,23.20
2023-03-02T05:31:17.557Z,23.20
2023-03-02T05:32:17.555Z,23.20
2023-03-02T05:33:17.492Z,23.20
2023-03-02T05:34:17.456Z,23.21
2023-03-02T05:35:17.464Z,23.22
2023-03-02T05:36:19.550Z,23.22
2023-03-02T05:37:17.423Z,23.22
2023-03-02T05:38:17.414Z,23.22
2023-03-02T05:39:17.392Z,23.23
2023-03-02T05:40:17.385Z,23.23
2023-03-02T05:41:17.374Z,23.24
2023-03-02T05:42:17.336Z,23.23
2023-03-02T05:43:17.342Z,23.25
2023-03-02T05:44:17.323Z,23.24
2023-03-02T05:45:17.316Z,23.24
2023-03-02T05:46:17.483Z,23.25
2023-03-02T05:47:17.288Z,23.25
2023-03-02T05:48:17.233Z,23.24
2023-03-02T05:49:17.245Z,23.25
2023-03-02T05:50:17.211Z,23.26
2023-03-02T05:51:17.197Z,23.26
2023-03-02T05:52:17.176Z,23.26
2023-03-02T05:53:17.159Z,23.27
2023-03-02T05:54:17.127Z,23.26
2023-03-02T05:55:17.131Z,23.26
2023-03-02T05:56:17.139Z,23.27
2023-03-02T05:57:17.080Z,23.27
2023-03-02T05:58:17.064Z,23.27
2023-03-02T05:59:17.030Z,23.27
2023-03-02T06:00:17.034Z,23.27
2023-03-02T06:01:17.005Z,23.27
2023-03-02T06:02:16.997Z,23.28
2023-03-02T06:03:17.042Z,23.28
2023-03-02T06:04:16.957Z,23.28
2023-03-02T06:05:16.941Z,23.28
2023-03-02T06:06:16.909Z,23.29
2023-03-02T06:07:16.917Z,23.29
2023-03-02T06:08:16.883Z,23.29
2023-03-02T06:09:16.866Z,23.29
2023-03-02T06:10:16.859Z,23.29
2023-03-02T06:11:16.832Z,23.29
2023-03-02T06:12:16.824Z,23.29
2023-03-02T06:13:16.816Z,23.29
2023-03-02T06:14:16.828Z,23.30
2023-03-02T06:15:16.787Z,23.31
2023-03-02T06:16:16.781Z,23.31
2023-03-02T06:17:16.757Z,23.31
2023-03-02T06:18:16.731Z,23.31
2023-03-02T06:19:16.705Z,23.31
2023-03-02T06:20:16.688Z,23.31
2023-03-02T06:21:16.665Z,23.30
2023-03-02T06:22:16.669Z,23.31
2023-03-02T06:23:16.674Z,23.31
2023-03-02T06:24:16.636Z,23.31
2023-03-02T06:25:16.630Z,23.31
2023-03-02T06:26:16.633Z,23.31
2023-03-02T06:27:16.612Z,23.31
2023-03-02T06:28:16.607Z,23.32
2023-03-02T06:29:16.575Z,23.32
2023-03-02T06:30:16.573Z,23.32
2023-03-02T06:31:16.594Z,23.33
2023-03-02T06:32:16.611Z,23.32
2023-03-02T06:33:16.527Z,23.33
2023-03-02T06:34:16.511Z,23.33
2023-03-02T06:35:16.612Z,23.34
2023-03-02T06:36:16.659Z,23.33
2023-03-02T06:37:16.519Z,23.32
2023-03-02T06:38:16.456Z,23.33
2023-03-02T06:39:17.099Z,23.33
2023-03-02T06:40:16.578Z,23.33
2023-03-02T06:41:16.560Z,23.33
2023-03-02T06:42:16.554Z,23.34
2023-03-02T06:43:16.514Z,23.33
2023-03-02T06:44:16.573Z,23.33
2023-03-02T06:45:16.539Z,23.32
2023-03-02T06:46:16.587Z,23.32
2023-03-02T06:47:16.512Z,23.32
2023-03-02T06:49:16.454Z,23.31
2023-03-02T06:51:16.408Z,23.31
2023-03-02T06:52:16.389Z,23.31
2023-03-02T06:53:16.420Z,23.31
2023-03-02T06:54:16.380Z,23.32
2023-03-02T06:55:16.338Z,23.32
2023-03-02T06:56:16.338Z,23.33
2023-03-02T06:57:16.345Z,23.34
2023-03-02T06:58:16.313Z,23.33
2023-03-02T06:59:16.281Z,23.34
2023-03-02T07:00:16.287Z,23.35
2023-03-02T07:01:16.287Z,23.35
2023-03-02T07:03:16.280Z,23.36
2023-03-02T07:04:16.217Z,23.37
2023-03-02T07:05:16.220Z,23.36
2023-03-02T07:06:16.203Z,23.36
2023-03-02T07:07:16.208Z,23.37
2023-03-02T07:08:16.202Z,23.36
2023-03-02T07:09:16.161Z,23.37
2023-03-02T07:10:16.137Z,23.37
2023-03-02T07:11:16.132Z,23.37
2023-03-02T07:12:16.097Z,23.38
2023-03-02T07:13:16.139Z,23.38
2023-03-02T07:15:16.064Z,23.38
2023-03-02T07:16:16.199Z,23.38
2023-03-02T07:17:16.008Z,23.39
2023-03-02T07:18:16.115Z,23.39
2023-03-02T07:19:15.980Z,23.39
2023-03-02T07:20:16.055Z,23.39
2023-03-02T07:21:15.999Z,23.40
2023-03-02T07:22:15.946Z,23.40
2023-03-02T07:23:15.910Z,23.41
2023-03-02T07:24:16.697Z,23.41
2023-03-02T07:25:15.884Z,23.41
2023-03-02T07:26:15.907Z,23.41
2023-03-02T07:27:15.811Z,23.42
2023-03-02T07:29:15.759Z,23.43
2023-03-02T07:30:15.785Z,23.43
2023-03-02T07:32:15.760Z,23.44
2023-03-02T07:33:15.681Z,23.45
2023-03-02T07:34:15.762Z,23.45
2023-03-02T07:35:15.636Z,23.46
2023-03-02T07:36:15.620Z,23.47
2023-03-02T07:37:15.584Z,23.46
2023-03-02T07:38:15.616Z,23.47
2023-03-02T07:39:15.531Z,23.49
2023-03-02T07:40:15.514Z,23.49
2023-03-02T07:41:15.567Z,23.50
2023-03-02T07:42:15.498Z,23.50
2023-03-02T07:43:15.490Z,23.51
2023-03-02T07:44:15.508Z,23.50
2023-03-02T07:45:15.465Z,23.50
2023-03-02T07:46:15.511Z,23.53
2023-03-02T07:47:15.410Z,23.56
2023-03-02T07:48:15.445Z,23.58
2023-03-02T07:49:15.379Z,23.59
2023-03-02T07:50:15.375Z,23.60
2023-03-02T07:51:15.354Z,23.61
2023-03-02T07:53:15.336Z,23.63
2023-03-02T07:54:15.300Z,23.63
2023-03-02T07:55:15.279Z,23.64
2023-03-02T07:56:15.247Z,23.63
2023-03-02T07:58:15.209Z,23.64
2023-03-02T07:59:15.202Z,23.65
2023-03-02T08:00:15.182Z,23.65
2023-03-02T08:01:15.148Z,23.66
2023-03-02T08:02:15.246Z,23.65
2023-03-02T08:03:15.209Z,23.65
2023-03-02T08:04:15.097Z,23.66
2023-03-02T08:05:15.091Z,23.66
2023-03-02T08:06:15.051Z,23.64
2023-03-02T08:07:15.040Z,23.62
2023-03-02T08:08:15.023Z,23.63
2023-03-02T08:09:16.894Z,23.66
2023-03-02T08:10:14.949Z,23.68
2023-03-02T08:15:15.173Z,23.80
2023-03-02T08:16:15.142Z,23.81
2023-03-02T08:17:15.093Z,23.84
2023-03-02T08:18:15.033Z,23.88
2023-03-02T08:20:14.978Z,23.93
2023-03-02T08:21:14.953Z,23.94
2023-03-02T08:22:15.117Z,23.96
2023-03-02T08:23:15.014Z,23.98
2023-03-02T08:25:14.854Z,24.05
2023-03-02T08:26:17.412Z,24.07
2023-03-02T08:27:14.901Z,24.09
2023-03-02T08:28:14.885Z,24.10
2023-03-02T08:30:14.714Z,24.15
2023-03-02T08:32:15.629Z,24.21
2023-03-02T08:34:14.628Z,24.26
2023-03-02T08:36:14.590Z,24.30
2023-03-02T08:37:14.558Z,24.32
2023-03-02T08:38:14.540Z,24.34
2023-03-02T08:39:14.493Z,24.34
2023-03-02T08:40:14.496Z,24.35
2023-03-02T08:41:14.539Z,24.34
2023-03-02T08:42:14.428Z,24.33
2023-03-02T08:43:14.394Z,24.32
2023-03-02T08:44:14.426Z,24.32
2023-03-02T08:45:14.396Z,24.30
2023-03-02T08:46:14.401Z,24.29
2023-03-02T08:47:14.346Z,24.28
2023-03-02T08:48:14.341Z,24.27
2023-03-02T08:49:14.238Z,24.26
2023-03-02T08:50:14.242Z,24.26
2023-03-02T08:51:14.280Z,24.23
2023-03-02T08:52:14.413Z,24.22
2023-03-02T08:53:14.212Z,24.20
2023-03-02T08:55:14.212Z,24.18
2023-03-02T08:56:14.108Z,24.17
2023-03-02T08:57:14.102Z,24.16
2023-03-02T08:58:14.169Z,24.16
2023-03-02T08:59:14.045Z,24.14
2023-03-02T09:00:14.005Z,24.14
2023-03-02T09:01:14.276Z,24.12
2023-03-02T09:02:14.064Z,24.11
2023-03-02T09:03:13.946Z,24.11
2023-03-02T09:05:13.913Z,24.09
2023-03-02T09:06:13.901Z,24.08
2023-03-02T09:07:16.306Z,24.07
2023-03-02T09:18:13.884Z,24.08
2023-03-02T09:51:13.056Z,24.20
2023-03-02T09:52:13.039Z,24.21
2023-03-02T09:53:15.747Z,24.21
2023-03-02T09:54:13.716Z,24.20
2023-03-02T09:55:13.057Z,24.17
2023-03-02T09:56:12.924Z,24.17
2023-03-02T09:57:12.923Z,24.16
2023-03-02T09:58:12.889Z,24.15
2023-03-02T09:59:12.871Z,24.14
2023-03-02T10:00:19.213Z,24.14
2023-03-02T10:01:16.388Z,24.13
2023-03-02T10:02:13.000Z,24.12
2023-03-02T10:03:17.362Z,24.12
2023-03-02T10:04:14.034Z,24.12
2023-03-02T10:05:12.737Z,24.13
2023-03-02T10:06:13.207Z,24.13
2023-03-02T10:07:12.722Z,24.13
2023-03-02T10:08:13.279Z,24.15
2023-03-02T10:09:12.603Z,24.14
2023-03-02T10:10:12.606Z,24.13
2023-03-02T10:11:12.616Z,24.13
2023-03-02T10:12:12.549Z,24.13
2023-03-02T10:13:12.542Z,24.13
2023-03-02T10:14:12.506Z,24.11
2023-03-02T10:15:12.575Z,24.12
2023-03-02T10:16:12.485Z,24.12
2023-03-02T10:17:12.416Z,24.11
2023-03-02T10:18:12.440Z,24.10
2023-03-02T10:20:12.358Z,24.11
2023-03-02T10:27:12.735Z,24.11
2023-03-02T10:28:12.724Z,24.11
2023-03-02T13:22:15.898Z,24.45
2023-03-02T15:18:12.470Z,24.07
2023-03-02T17:01:04.483Z,23.81
2023-03-02T17:02:03.758Z,23.80
2023-03-02T17:03:03.650Z,23.81
2023-03-02T17:05:03.693Z,23.81
2023-03-02T17:06:03.596Z,23.81
2023-03-02T17:07:03.693Z,23.81
2023-03-02T17:08:03.613Z,23.81
2023-03-02T17:10:03.526Z,23.79
2023-03-02T17:11:04.383Z,23.79
2023-03-02T17:12:03.472Z,23.78
2023-03-02T17:13:04.441Z,23.78
2023-03-02T17:14:04.361Z,23.78
2023-03-02T17:15:04.398Z,23.78
2023-03-02T17:16:03.506Z,23.78
2023-03-02T17:17:03.406Z,23.77
2023-03-02T17:18:04.408Z,23.77
2023-03-02T17:19:03.372Z,23.77
2023-03-02T17:20:03.310Z,23.76
2023-03-02T17:21:03.303Z,23.75
2023-03-02T17:22:03.313Z,23.76
2023-03-02T17:23:03.265Z,23.76
2023-03-02T17:24:03.236Z,23.76
2023-03-02T17:25:04.739Z,23.77
2023-03-02T17:26:03.174Z,23.78
2023-03-02T17:27:04.240Z,23.77
2023-03-02T17:28:03.187Z,23.77
2023-03-02T17:29:03.849Z,23.76
2023-03-02T17:30:03.159Z,23.76
2023-03-02T17:31:04.492Z,23.75
2023-03-02T17:32:03.091Z,23.77
2023-03-02T17:33:03.064Z,23.75
2023-03-02T17:34:03.021Z,23.75
2023-03-02T17:35:03.076Z,23.74
2023-03-02T17:37:03.002Z,23.73
2023-03-02T17:38:03.914Z,23.74
2023-03-02T17:39:03.876Z,23.74
2023-03-02T17:40:02.977Z,23.74
2023-03-02T17:41:02.893Z,23.75
2023-03-02T17:42:02.882Z,23.75
2023-03-02T17:43:02.925Z,23.75
2023-03-02T17:44:02.934Z,23.75
2023-03-02T17:45:02.942Z,23.75
2023-03-02T17:46:02.928Z,23.75
2023-03-02T17:47:02.837Z,23.76
2023-03-02T17:48:02.805Z,23.75
2023-03-02T17:49:02.758Z,23.75
2023-03-02T17:50:02.854Z,23.75
2023-03-02T17:51:02.755Z,23.76
2023-03-02T17:52:02.763Z,23.76
2023-03-02T17:53:02.731Z,23.75
2023-03-02T17:54:02.670Z,23.74
2023-03-02T17:55:02.955Z,23.74
2023-03-02T17:56:02.708Z,23.74
2023-03-02T17:57:02.711Z,23.74
2023-03-02T17:58:02.667Z,23.73
2023-03-02T17:59:02.580Z,23.73
2023-03-02T18:00:02.659Z,23.73
2023-03-02T18:01:02.580Z,23.73
2023-03-02T18:02:04.382Z,23.72
2023-03-02T18:03:03.469Z,23.72
2023-03-02T18:04:02.663Z,23.72
2023-03-02T18:05:02.496Z,23.72
2023-03-02T18:06:02.479Z,23.72
2023-03-02T18:07:02.489Z,23.71
2023-03-02T18:08:02.418Z,23.70
2023-03-02T18:09:02.423Z,23.70
2023-03-02T18:10:02.475Z,23.69
2023-03-02T18:11:02.882Z,23.70
2023-03-02T18:12:02.356Z,23.70
2023-03-02T18:17:03.921Z,23.68
2023-03-02T18:29:02.883Z,23.66
2023-03-02T18:36:03.422Z,23.66
2023-03-02T18:38:03.986Z,23.66
2023-03-02T18:45:02.384Z,23.65
2023-03-02T18:53:04.394Z,23.63
2023-03-02T18:54:02.890Z,23.63
2023-03-02T18:56:03.886Z,23.64
2023-03-02T19:12:02.394Z,23.62
2023-03-02T19:15:02.471Z,23.62
2023-03-02T19:19:02.466Z,23.62
2023-03-02T19:20:02.744Z,23.64
2023-03-02T19:27:02.412Z,23.64
2023-03-02T19:37:02.963Z,23.61
2023-03-02T19:41:03.927Z,23.63
2023-03-02T19:46:02.988Z,23.62
2023-03-02T19:56:02.418Z,23.62
2023-03-02T19:59:02.437Z,23.61
2023-03-02T20:05:03.419Z,23.61
2023-03-02T20:51:59.944Z,23.58
2023-03-02T20:52:59.876Z,23.58
2023-03-02T20:53:59.908Z,23.57
2023-03-02T20:54:59.903Z,23.58
2023-03-02T20:55:59.850Z,23.59
2023-03-02T20:56:59.854Z,23.59
2023-03-02T20:59:59.721Z,23.58
2023-03-02T21:00:59.725Z,23.57
2023-03-02T21:02:59.654Z,23.58
2023-03-02T21:03:59.656Z,23.58
2023-03-02T21:04:59.700Z,23.59
2023-03-02T21:05:59.674Z,23.58
2023-03-02T21:06:59.620Z,23.58
2023-03-02T21:07:59.611Z,23.58
2023-03-02T21:08:59.582Z,23.59
2023-03-02T21:10:59.562Z,23.58
2023-03-02T21:11:59.478Z,23.58
2023-03-02T21:12:59.431Z,23.59
2023-03-02T21:13:59.482Z,23.58
2023-03-02T21:14:59.426Z,23.58
2023-03-02T21:15:59.459Z,23.56
2023-03-02T21:17:00.060Z,23.57
2023-03-02T21:17:59.440Z,23.56
2023-03-02T21:18:59.384Z,23.55
2023-03-02T21:19:59.306Z,23.56
2023-03-02T21:20:59.960Z,23.56
2023-03-02T21:21:59.294Z,23.57
2023-03-02T21:22:59.460Z,23.56
2023-03-02T21:23:59.946Z,23.54
2023-03-02T21:24:59.288Z,23.54
2023-03-02T21:25:59.244Z,23.54
2023-03-02T21:26:59.179Z,23.53
2023-03-02T21:27:59.195Z,23.54
2023-03-02T21:28:59.943Z,23.55
2023-03-02T21:29:59.160Z,23.53
2023-03-02T21:30:59.216Z,23.55
2023-03-02T21:31:59.199Z,23.55
2023-03-02T21:32:59.064Z,23.56
2023-03-02T21:33:59.105Z,23.57
2023-03-02T21:34:59.023Z,23.57
2023-03-02T21:35:58.997Z,23.56
2023-03-02T21:36:58.980Z,23.57
2023-03-02T21:37:59.073Z,23.56
2023-03-02T21:38:59.516Z,23.57
2023-03-02T21:39:58.935Z,23.58
2023-03-02T21:40:58.964Z,23.58
2023-03-02T21:41:58.865Z,23.57
2023-03-02T21:42:59.450Z,23.56
2023-03-02T21:43:58.838Z,23.56
2023-03-02T21:44:58.818Z,23.53
2023-03-02T21:45:58.788Z,23.53
2023-03-02T21:46:58.836Z,23.54
2023-03-02T21:47:59.463Z,23.56
2023-03-02T21:48:58.737Z,23.56
2023-03-02T21:49:58.760Z,23.57
2023-03-02T21:50:58.749Z,23.57
2023-03-02T21:51:59.510Z,23.58
2023-03-02T21:52:58.668Z,23.57
2023-03-02T21:53:59.673Z,23.58
2023-03-02T21:54:58.718Z,23.58
2023-03-02T21:55:58.579Z,23.59
2023-03-02T21:56:59.450Z,23.59
2023-03-02T21:57:58.536Z,23.58
2023-03-02T21:58:59.470Z,23.59
2023-03-02T22:00:58.488Z,23.57
2023-03-02T22:01:58.468Z,23.56
2023-03-02T22:03:58.478Z,23.56
2023-03-02T22:04:58.971Z,23.55
2023-03-02T22:05:59.512Z,23.56
2023-03-02T22:06:58.443Z,23.55
2023-03-02T22:07:58.365Z,23.55
2023-03-02T22:08:58.427Z,23.54
2023-03-02T22:09:58.417Z,23.54
2023-03-02T22:10:58.968Z,23.53
2023-03-02T22:11:58.309Z,23.53
2023-03-02T22:12:58.290Z,23.55
2023-03-02T22:13:58.233Z,23.56
2023-03-02T22:14:58.275Z,23.57
2023-03-02T22:15:59.024Z,23.56
2023-03-02T22:16:58.165Z,23.55
2023-03-02T22:17:58.970Z,23.56
2023-03-02T22:18:58.222Z,23.56
2023-03-02T22:19:59.008Z,23.57
2023-03-02T22:20:58.092Z,23.56
2023-03-02T22:21:58.972Z,23.56
2023-03-02T22:22:58.122Z,23.54
2023-03-02T22:23:58.042Z,23.54
2023-03-02T22:24:58.011Z,23.55
2023-03-02T22:25:58.050Z,23.55
2023-03-02T22:26:57.988Z,23.54
2023-03-02T22:27:58.030Z,23.54
2023-03-02T22:28:58.139Z,23.56
2023-03-02T22:29:57.946Z,23.56
2023-03-02T22:30:57.948Z,23.56
2023-03-02T22:31:57.937Z,23.54
2023-03-02T22:32:57.870Z,23.55
2023-03-02T22:33:58.088Z,23.55
2023-03-02T22:34:57.849Z,23.55
2023-03-02T22:35:58.563Z,23.57
2023-03-02T22:36:57.951Z,23.56
2023-03-02T22:37:58.498Z,23.56
2023-03-02T22:38:57.962Z,23.57
2023-03-02T22:39:58.486Z,23.55
2023-03-02T22:40:57.896Z,23.56
2023-03-02T22:41:57.954Z,23.55
2023-03-02T22:42:57.879Z,23.56
2023-03-02T22:44:57.865Z,23.55
2023-03-02T22:45:58.482Z,23.56
2023-03-02T22:46:57.920Z,23.56
2023-03-02T22:47:58.539Z,23.57
2023-03-02T22:48:57.845Z,23.57
2023-03-02T22:49:57.810Z,23.56
2023-03-02T22:50:57.702Z,23.57
2023-03-02T22:51:57.732Z,23.55
2023-03-02T22:52:57.730Z,23.55
2023-03-02T22:54:57.640Z,23.56
2023-03-02T22:55:57.658Z,23.53
2023-03-02T22:56:57.587Z,23.52
2023-03-02T22:57:57.570Z,23.52
2023-03-02T22:58:57.609Z,23.53
2023-03-02T22:59:57.509Z,23.53
2023-03-02T23:00:57.575Z,23.53
2023-03-02T23:01:57.467Z,23.55
2023-03-02T23:02:57.503Z,23.55
2023-03-02T23:03:57.421Z,23.56
2023-03-02T23:04:57.478Z,23.56
2023-03-02T23:05:57.449Z,23.56
2023-03-02T23:06:57.349Z,23.55
2023-03-02T23:07:57.391Z,23.56
2023-03-02T23:08:57.324Z,23.56
2023-03-02T23:09:57.291Z,23.57
2023-03-02T23:10:57.277Z,23.55
2023-03-02T23:11:58.071Z,23.57
2023-03-02T23:12:57.326Z,23.56
2023-03-02T23:13:57.266Z,23.58
2023-03-02T23:14:57.254Z,23.57
2023-03-02T23:15:57.171Z,23.56
2023-03-02T23:16:57.157Z,23.56
2023-03-02T23:17:57.229Z,23.56
2023-03-02T23:18:57.126Z,23.56
2023-03-02T23:19:57.130Z,23.55
2023-03-02T23:20:57.169Z,23.54
2023-03-02T23:21:57.060Z,23.55
2023-03-02T23:22:57.089Z,23.55
2023-03-02T23:24:57.063Z,23.54
2023-03-02T23:25:57.061Z,23.54
2023-03-02T23:26:56.963Z,23.55
2023-03-02T23:27:56.969Z,23.54
2023-03-02T23:28:56.937Z,23.54
2023-03-02T23:29:56.908Z,23.54
2023-03-02T23:30:56.879Z,23.54
2023-03-02T23:31:57.655Z,23.54
2023-03-02T23:32:56.842Z,23.53
2023-03-02T23:33:57.540Z,23.51
2023-03-02T23:34:57.047Z,23.52
2023-03-02T23:35:56.922Z,23.52
2023-03-02T23:36:56.744Z,23.53
2023-03-02T23:37:57.575Z,23.53
2023-03-02T23:39:56.736Z,23.53
2023-03-02T23:40:56.740Z,23.52
2023-03-02T23:41:56.738Z,23.53
2023-03-02T23:42:57.500Z,23.52
2023-03-02T23:43:56.640Z,23.52
2023-03-02T23:44:56.556Z,23.51
2023-03-02T23:45:56.597Z,23.50
2023-03-02T23:46:56.520Z,23.50
2023-03-02T23:47:56.519Z,23.52
2023-03-02T23:48:57.047Z,23.51
2023-03-02T23:49:56.459Z,23.51
2023-03-02T23:50:56.438Z,23.51
2023-03-02T23:51:56.431Z,23.51
2023-03-02T23:52:56.467Z,23.50
2023-03-02T23:53:56.440Z,23.50
2023-03-02T23:54:56.351Z,23.49
2023-03-02T23:55:57.489Z,23.50
2023-03-02T23:56:56.326Z,23.49
2023-03-02T23:57:56.337Z,23.50
2023-03-02T23:58:56.267Z,23.51
2023-03-02T23:59:56.325Z,23.52
